KOGB/OGB METAR and TAF weather

Enter ICAO airport designator
Station Type Date Time Source
KOGB METAR 2020/12/01 21:53 UTC NOAA

KOGB 012153Z AUTO 28009G18KT 10SM FEW050 07/M04 A3007 RMK AO2 SLP183 T00671044


Station Type Date Time Source
KOGB Decoded METAR 2020/12/01 21:53 UTC NOAA

ORANGEBURG MUNICIPAL AIRPORT, SC, United States (KOGB) 33-28N 080-51W 59M
Dec 01, 2020 - 04:53 PM EST / 2020.12.01 2153 UTC
Wind: from the W (280 degrees) at 10 MPH (9 KT) gusting to 21 MPH (18 KT):0
Visibility: 10 mile(s):0
Sky conditions: mostly clear
Temperature: 44.1 F (6.7 C)
Dew Point: 24.1 F (-4.4 C)
Relative Humidity: 44%
Pressure (altimeter): 30.07 in. Hg (1018 hPa)
ob: KOGB 012153Z AUTO 28009G18KT 10SM FEW050 07/M04 A3007 RMK AO2 SLP183 T00671044
cycle: 22

Station Type Date Time Source
KOGB TAF 2020/12/01 21:58 UTC NOAA

TAF
AMD KOGB 012055Z 0121/0218 27013KT P6SM SCT050
FM020000 28004KT P6SM SKC
FM020700 28003KT P6SM SKC

Example: see airport list